Wilson Creek (Missouri), Battlefield (07052160)

StateMissouriLatestHigh (158 cfs)
RiverWilson CreekRatingObservedEstimated
Updated2020-04-07 19:30 (42 minutes ago)Flood - The river is flooding. Obstacles can be treacherous or deadly. The river should be avoided at this stage for casual trips and definitely for the inexperienced. Trips should be attempted only with protective gear and equipment.Flood(none)310
Discharge158 cfs (median: 96 cfs)High - The river is high and potentially dangerous, especially for the young and / or inexperienced. Normal stream obstacles are sometimes difficult to navigate. Extended distances can be attempted, but canoe travel may not be advisable.High(none)142
Height2.84 feetGood - Conditions are ideal for a canoe or kayak. Boats typically will drag on fewer than one-quarter of riffles, if at all, and portages are unnecessary or rare. Normal float lengths can be attempted without a problem.Good(none)84
TrendSteady (steady over 24 hours)Low - River is low but can still be floated. Some riffles are okay but most come with significant dragging and might need a portage. Float lengths should be reduced to accommodate low flow, dragging, and portages.Low(none)72
USGSExternal icon USGS Site (External icon Google Maps)Poor - River is too low to float comfortably. Most or all riffles will drag or must be portaged and some obstacles (such as slick shelf rock) cause undue problems. Avoid the river at this stage for casual paddling trips.Poor(none)47

Trending Data

Plot Image

Trips for Wilson Creek (Missouri), Battlefield (07052160)

DateStartEndDistanceConditionDischargeHeightFishingDetails

A total of 0 rows are displayed.

Condition Descriptions

Fishing Conditions

Fish Species

Notes

Classic Trip List

The classic River Trips application is still available for use. It is updated with the new system using a data retrofit. It is no longer maintained. The original River Trips application is no longer updated (as of 1 Dec 2016) but can be checked for errors or for the condition of the data before it was converted to the new system.

Gauge Data Table

ObservationHeightDischargeMaximum
Discharge
Minimum
Discharge
Mean
Discharge
P05P10P20P25P50
(Median)
P75P80P90P95
2020-04-07 19:30 2.84 158 168 (1973) 39 (1981) 96 40 52 54 58 96 125 128 163 168
2020-04-07 18:30 2.84 158 168 (1973) 39 (1981) 96 40 52 54 58 96 125 128 163 168
2020-04-07 17:30 2.83 155 168 (1973) 39 (1981) 96 40 52 54 58 96 125 128 163 168
2020-04-07 16:30 2.81 150 168 (1973) 39 (1981) 96 40 52 54 58 96 125 128 163 168
2020-04-07 15:30 2.82 153 168 (1973) 39 (1981) 96 40 52 54 58 96 125 128 163 168
2020-04-07 14:30 2.81 150 168 (1973) 39 (1981) 96 40 52 54 58 96 125 128 163 168
2020-04-07 13:30 2.81 150 168 (1973) 39 (1981) 96 40 52 54 58 96 125 128 163 168
2020-04-07 12:30 2.81 150 168 (1973) 39 (1981) 96 40 52 54 58 96 125 128 163 168
2020-04-07 11:30 2.79 145 168 (1973) 39 (1981) 96 40 52 54 58 96 125 128 163 168
2020-04-07 10:30 2.79 145 168 (1973) 39 (1981) 96 40 52 54 58 96 125 128 163 168
2020-04-07 09:30 2.81 150 168 (1973) 39 (1981) 96 40 52 54 58 96 125 128 163 168
2020-04-07 08:30 2.80 147 168 (1973) 39 (1981) 96 40 52 54 58 96 125 128 163 168
2020-04-07 07:30 2.81 150 168 (1973) 39 (1981) 96 40 52 54 58 96 125 128 163 168
2020-04-07 06:30 2.81 150 168 (1973) 39 (1981) 96 40 52 54 58 96 125 128 163 168
2020-04-07 05:30 2.80 147 168 (1973) 39 (1981) 96 40 52 54 58 96 125 128 163 168
2020-04-07 04:30 2.82 153 168 (1973) 39 (1981) 96 40 52 54 58 96 125 128 163 168
2020-04-07 03:30 2.85 161 168 (1973) 39 (1981) 96 40 52 54 58 96 125 128 163 168
2020-04-07 02:30 2.85 161 168 (1973) 39 (1981) 96 40 52 54 58 96 125 128 163 168
2020-04-07 01:30 2.87 167 168 (1973) 39 (1981) 96 40 52 54 58 96 125 128 163 168
2020-04-07 00:30 2.88 169 168 (1973) 39 (1981) 96 40 52 54 58 96 125 128 163 168
2020-04-06 23:30 2.89 172 184 (1973) 35 (1981) 105 36 52 60 61 101 140 158 178 184
2020-04-06 22:30 2.87 167 184 (1973) 35 (1981) 105 36 52 60 61 101 140 158 178 184
2020-04-06 21:30 2.88 169 184 (1973) 35 (1981) 105 36 52 60 61 101 140 158 178 184
2020-04-06 20:30 2.87 167 184 (1973) 35 (1981) 105 36 52 60 61 101 140 158 178 184
2020-04-06 19:30 2.89 172 184 (1973) 35 (1981) 105 36 52 60 61 101 140 158 178 184
2020-04-06 18:30 2.84 158 184 (1973) 35 (1981) 105 36 52 60 61 101 140 158 178 184
2020-04-06 17:30 2.87 167 184 (1973) 35 (1981) 105 36 52 60 61 101 140 158 178 184
2020-04-06 16:30 2.89 172 184 (1973) 35 (1981) 105 36 52 60 61 101 140 158 178 184
2020-04-06 15:30 2.86 164 184 (1973) 35 (1981) 105 36 52 60 61 101 140 158 178 184
2020-04-06 14:30 2.86 164 184 (1973) 35 (1981) 105 36 52 60 61 101 140 158 178 184
2020-04-06 13:30 2.85 161 184 (1973) 35 (1981) 105 36 52 60 61 101 140 158 178 184
2020-04-06 12:30 2.83 155 184 (1973) 35 (1981) 105 36 52 60 61 101 140 158 178 184
2020-04-06 11:30 2.89 172 184 (1973) 35 (1981) 105 36 52 60 61 101 140 158 178 184
2020-04-06 10:30 2.87 167 184 (1973) 35 (1981) 105 36 52 60 61 101 140 158 178 184
2020-04-06 09:30 2.86 164 184 (1973) 35 (1981) 105 36 52 60 61 101 140 158 178 184
2020-04-06 08:30 2.85 161 184 (1973) 35 (1981) 105 36 52 60 61 101 140 158 178 184
2020-04-06 07:30 2.87 167 184 (1973) 35 (1981) 105 36 52 60 61 101 140 158 178 184
2020-04-06 06:30 2.87 167 184 (1973) 35 (1981) 105 36 52 60 61 101 140 158 178 184
2020-04-06 05:30 2.89 172 184 (1973) 35 (1981) 105 36 52 60 61 101 140 158 178 184
2020-04-06 04:30 2.88 169 184 (1973) 35 (1981) 105 36 52 60 61 101 140 158 178 184
2020-04-06 03:30 2.92 181 184 (1973) 35 (1981) 105 36 52 60 61 101 140 158 178 184
2020-04-06 02:30 2.90 175 184 (1973) 35 (1981) 105 36 52 60 61 101 140 158 178 184
2020-04-06 01:30 2.94 186 184 (1973) 35 (1981) 105 36 52 60 61 101 140 158 178 184
2020-04-06 00:30 2.92 181 184 (1973) 35 (1981) 105 36 52 60 61 101 140 158 178 184
2020-04-05 23:30 2.95 189 206 (1973) 36 (1981) 108 37 49 61 61 101 146 153 203 206
2020-04-05 22:30 2.92 181 206 (1973) 36 (1981) 108 37 49 61 61 101 146 153 203 206
2020-04-05 21:30 2.95 189 206 (1973) 36 (1981) 108 37 49 61 61 101 146 153 203 206
2020-04-05 20:30 2.91 178 206 (1973) 36 (1981) 108 37 49 61 61 101 146 153 203 206
2020-04-05 19:30 2.89 172 206 (1973) 36 (1981) 108 37 49 61 61 101 146 153 203 206
2020-04-05 18:30 2.91 178 206 (1973) 36 (1981) 108 37 49 61 61 101 146 153 203 206
2020-04-05 17:30 2.95 189 206 (1973) 36 (1981) 108 37 49 61 61 101 146 153 203 206
2020-04-05 16:30 2.93 184 206 (1973) 36 (1981) 108 37 49 61 61 101 146 153 203 206
2020-04-05 15:30 2.89 172 206 (1973) 36 (1981) 108 37 49 61 61 101 146 153 203 206
2020-04-05 14:30 2.94 186 206 (1973) 36 (1981) 108 37 49 61 61 101 146 153 203 206
2020-04-05 13:30 2.94 186 206 (1973) 36 (1981) 108 37 49 61 61 101 146 153 203 206
2020-04-05 12:30 2.91 178 206 (1973) 36 (1981) 108 37 49 61 61 101 146 153 203 206
2020-04-05 11:30 2.94 186 206 (1973) 36 (1981) 108 37 49 61 61 101 146 153 203 206
2020-04-05 10:30 2.91 178 206 (1973) 36 (1981) 108 37 49 61 61 101 146 153 203 206
2020-04-05 09:30 2.91 178 206 (1973) 36 (1981) 108 37 49 61 61 101 146 153 203 206
2020-04-05 08:30 2.92 181 206 (1973) 36 (1981) 108 37 49 61 61 101 146 153 203 206
2020-04-05 07:30 2.94 186 206 (1973) 36 (1981) 108 37 49 61 61 101 146 153 203 206
2020-04-05 06:30 2.91 178 206 (1973) 36 (1981) 108 37 49 61 61 101 146 153 203 206
2020-04-05 05:30 2.94 186 206 (1973) 36 (1981) 108 37 49 61 61 101 146 153 203 206
2020-04-05 04:30 2.96 192 206 (1973) 36 (1981) 108 37 49 61 61 101 146 153 203 206
2020-04-05 03:30 3.00 202 206 (1973) 36 (1981) 108 37 49 61 61 101 146 153 203 206
2020-04-05 02:30 2.98 197 206 (1973) 36 (1981) 108 37 49 61 61 101 146 153 203 206
2020-04-05 01:30 3.01 205 206 (1973) 36 (1981) 108 37 49 61 61 101 146 153 203 206
2020-04-05 00:30 2.98 197 206 (1973) 36 (1981) 108 37 49 61 61 101 146 153 203 206
2020-04-04 23:30 2.99 200 242 (1979) 46 (1976) 122 46 52 58 61 106 183 202 238 242
2020-04-04 22:30 2.96 192 242 (1979) 46 (1976) 122 46 52 58 61 106 183 202 238 242
2020-04-04 21:30 3.02 208 242 (1979) 46 (1976) 122 46 52 58 61 106 183 202 238 242
2020-04-04 20:30 2.98 197 242 (1979) 46 (1976) 122 46 52 58 61 106 183 202 238 242
2020-04-04 19:30 3.01 205 242 (1979) 46 (1976) 122 46 52 58 61 106 183 202 238 242
2020-04-04 18:30 2.99 200 242 (1979) 46 (1976) 122 46 52 58 61 106 183 202 238 242
2020-04-04 17:30 3.04 213 242 (1979) 46 (1976) 122 46 52 58 61 106 183 202 238 242
2020-04-04 16:30 3.04 213 242 (1979) 46 (1976) 122 46 52 58 61 106 183 202 238 242
2020-04-04 15:30 3.08 224 242 (1979) 46 (1976) 122 46 52 58 61 106 183 202 238 242
2020-04-04 14:30 3.05 216 242 (1979) 46 (1976) 122 46 52 58 61 106 183 202 238 242
2020-04-04 13:30 3.06 219 242 (1979) 46 (1976) 122 46 52 58 61 106 183 202 238 242
2020-04-04 12:30 3.03 211 242 (1979) 46 (1976) 122 46 52 58 61 106 183 202 238 242
2020-04-04 11:30 3.06 219 242 (1979) 46 (1976) 122 46 52 58 61 106 183 202 238 242
2020-04-04 10:30 3.03 211 242 (1979) 46 (1976) 122 46 52 58 61 106 183 202 238 242
2020-04-04 09:30 3.04 213 242 (1979) 46 (1976) 122 46 52 58 61 106 183 202 238 242
2020-04-04 08:30 3.04 213 242 (1979) 46 (1976) 122 46 52 58 61 106 183 202 238 242
2020-04-04 07:30 3.06 219 242 (1979) 46 (1976) 122 46 52 58 61 106 183 202 238 242
2020-04-04 06:30 3.07 222 242 (1979) 46 (1976) 122 46 52 58 61 106 183 202 238 242
2020-04-04 05:30 3.08 224 242 (1979) 46 (1976) 122 46 52 58 61 106 183 202 238 242
2020-04-04 04:30 3.07 222 242 (1979) 46 (1976) 122 46 52 58 61 106 183 202 238 242
2020-04-04 03:30 3.12 235 242 (1979) 46 (1976) 122 46 52 58 61 106 183 202 238 242
2020-04-04 02:30 3.10 230 242 (1979) 46 (1976) 122 46 52 58 61 106 183 202 238 242
2020-04-04 01:30 3.14 241 242 (1979) 46 (1976) 122 46 52 58 61 106 183 202 238 242
2020-04-04 00:30 3.14 241 242 (1979) 46 (1976) 122 46 52 58 61 106 183 202 238 242
2020-04-03 23:30 3.16 247 280 (1968) 41 (1981) 129 41 51 64 68 115 162 226 274 280
2020-04-03 22:30 3.07 222 280 (1968) 41 (1981) 129 41 51 64 68 115 162 226 274 280
2020-04-03 21:30 3.07 222 280 (1968) 41 (1981) 129 41 51 64 68 115 162 226 274 280
2020-04-03 20:30 3.04 213 280 (1968) 41 (1981) 129 41 51 64 68 115 162 226 274 280
2020-04-03 19:30 3.03 211 280 (1968) 41 (1981) 129 41 51 64 68 115 162 226 274 280
2020-04-03 18:30 3.03 211 280 (1968) 41 (1981) 129 41 51 64 68 115 162 226 274 280
2020-04-03 17:30 3.06 219 280 (1968) 41 (1981) 129 41 51 64 68 115 162 226 274 280
2020-04-03 16:30 3.07 222 280 (1968) 41 (1981) 129 41 51 64 68 115 162 226 274 280
2020-04-03 15:30 3.09 227 280 (1968) 41 (1981) 129 41 51 64 68 115 162 226 274 280
2020-04-03 14:30 3.06 219 280 (1968) 41 (1981) 129 41 51 64 68 115 162 226 274 280
2020-04-03 13:30 3.08 224 280 (1968) 41 (1981) 129 41 51 64 68 115 162 226 274 280
2020-04-03 12:30 3.05 216 280 (1968) 41 (1981) 129 41 51 64 68 115 162 226 274 280
2020-04-03 11:30 3.04 213 280 (1968) 41 (1981) 129 41 51 64 68 115 162 226 274 280
2020-04-03 10:30 3.06 219 280 (1968) 41 (1981) 129 41 51 64 68 115 162 226 274 280
2020-04-03 09:30 3.05 216 280 (1968) 41 (1981) 129 41 51 64 68 115 162 226 274 280
2020-04-03 08:30 3.03 211 280 (1968) 41 (1981) 129 41 51 64 68 115 162 226 274 280
2020-04-03 07:30 3.07 222 280 (1968) 41 (1981) 129 41 51 64 68 115 162 226 274 280
2020-04-03 06:30 3.06 219 280 (1968) 41 (1981) 129 41 51 64 68 115 162 226 274 280
2020-04-03 05:30 3.10 230 280 (1968) 41 (1981) 129 41 51 64 68 115 162 226 274 280
2020-04-03 04:30 3.08 224 280 (1968) 41 (1981) 129 41 51 64 68 115 162 226 274 280
2020-04-03 03:30 3.12 235 280 (1968) 41 (1981) 129 41 51 64 68 115 162 226 274 280
2020-04-03 02:30 3.10 230 280 (1968) 41 (1981) 129 41 51 64 68 115 162 226 274 280
2020-04-03 01:30 3.13 238 280 (1968) 41 (1981) 129 41 51 64 68 115 162 226 274 280
2020-04-03 00:30 3.14 241 280 (1968) 41 (1981) 129 41 51 64 68 115 162 226 274 280
2020-04-02 23:30 3.08 224 352 (1979) 37 (1981) 133 38 54 62 83 111 134 174 324 351
2020-04-02 22:30 3.10 230 352 (1979) 37 (1981) 133 38 54 62 83 111 134 174 324 351
2020-04-02 21:30 3.12 235 352 (1979) 37 (1981) 133 38 54 62 83 111 134 174 324 351
2020-04-02 20:30 3.08 224 352 (1979) 37 (1981) 133 38 54 62 83 111 134 174 324 351
2020-04-02 19:30 3.14 241 352 (1979) 37 (1981) 133 38 54 62 83 111 134 174 324 351
2020-04-02 18:30 3.08 224 352 (1979) 37 (1981) 133 38 54 62 83 111 134 174 324 351
2020-04-02 17:30 3.14 241 352 (1979) 37 (1981) 133 38 54 62 83 111 134 174 324 351
2020-04-02 16:30 3.11 233 352 (1979) 37 (1981) 133 38 54 62 83 111 134 174 324 351
2020-04-02 15:30 3.16 247 352 (1979) 37 (1981) 133 38 54 62 83 111 134 174 324 351
2020-04-02 14:30 3.12 235 352 (1979) 37 (1981) 133 38 54 62 83 111 134 174 324 351
2020-04-02 13:30 3.16 247 352 (1979) 37 (1981) 133 38 54 62 83 111 134 174 324 351
2020-04-02 12:30 3.14 241 352 (1979) 37 (1981) 133 38 54 62 83 111 134 174 324 351
2020-04-02 11:30 3.14 241 352 (1979) 37 (1981) 133 38 54 62 83 111 134 174 324 351
2020-04-02 10:30 3.13 238 352 (1979) 37 (1981) 133 38 54 62 83 111 134 174 324 351
2020-04-02 09:30 3.10 230 352 (1979) 37 (1981) 133 38 54 62 83 111 134 174 324 351
2020-04-02 08:30 3.11 233 352 (1979) 37 (1981) 133 38 54 62 83 111 134 174 324 351
2020-04-02 07:30 3.13 238 352 (1979) 37 (1981) 133 38 54 62 83 111 134 174 324 351
2020-04-02 06:30 3.08 224 352 (1979) 37 (1981) 133 38 54 62 83 111 134 174 324 351
2020-04-02 05:30 3.12 235 352 (1979) 37 (1981) 133 38 54 62 83 111 134 174 324 351
2020-04-02 04:30 3.08 224 352 (1979) 37 (1981) 133 38 54 62 83 111 134 174 324 351
2020-04-02 03:30 3.14 241 352 (1979) 37 (1981) 133 38 54 62 83 111 134 174 324 351
2020-04-02 02:30 3.14 241 352 (1979) 37 (1981) 133 38 54 62 83 111 134 174 324 351
2020-04-02 01:30 3.18 252 352 (1979) 37 (1981) 133 38 54 62 83 111 134 174 324 351
2020-04-02 00:30 3.17 249 352 (1979) 37 (1981) 133 38 54 62 83 111 134 174 324 351
2020-04-01 23:30 3.22 264 488 (1979) 43 (1981) 153 43 52 60 68 117 154 203 424 485
2020-04-01 22:30 3.19 255 488 (1979) 43 (1981) 153 43 52 60 68 117 154 203 424 485
2020-04-01 21:30 3.25 273 488 (1979) 43 (1981) 153 43 52 60 68 117 154 203 424 485
2020-04-01 20:30 3.23 267 488 (1979) 43 (1981) 153 43 52 60 68 117 154 203 424 485
2020-04-01 19:30 3.23 267 488 (1979) 43 (1981) 153 43 52 60 68 117 154 203 424 485
2020-04-01 18:30 3.23 267 488 (1979) 43 (1981) 153 43 52 60 68 117 154 203 424 485
2020-04-01 17:30 3.29 285 488 (1979) 43 (1981) 153 43 52 60 68 117 154 203 424 485
2020-04-01 16:30 3.24 270 488 (1979) 43 (1981) 153 43 52 60 68 117 154 203 424 485
2020-04-01 15:30 3.28 282 488 (1979) 43 (1981) 153 43 52 60 68 117 154 203 424 485
2020-04-01 14:30 3.26 276 488 (1979) 43 (1981) 153 43 52 60 68 117 154 203 424 485
2020-04-01 13:30 3.28 282 488 (1979) 43 (1981) 153 43 52 60 68 117 154 203 424 485
2020-04-01 12:30 3.23 267 488 (1979) 43 (1981) 153 43 52 60 68 117 154 203 424 485
2020-04-01 11:30 3.27 279 488 (1979) 43 (1981) 153 43 52 60 68 117 154 203 424 485
2020-04-01 10:30 3.23 267 488 (1979) 43 (1981) 153 43 52 60 68 117 154 203 424 485
2020-04-01 09:30 3.26 276 488 (1979) 43 (1981) 153 43 52 60 68 117 154 203 424 485
2020-04-01 08:30 3.23 267 488 (1979) 43 (1981) 153 43 52 60 68 117 154 203 424 485
2020-04-01 07:30 3.27 279 488 (1979) 43 (1981) 153 43 52 60 68 117 154 203 424 485
2020-04-01 06:30 3.23 267 488 (1979) 43 (1981) 153 43 52 60 68 117 154 203 424 485
2020-04-01 05:30 3.28 282 488 (1979) 43 (1981) 153 43 52 60 68 117 154 203 424 485
2020-04-01 04:30 3.28 282 488 (1979) 43 (1981) 153 43 52 60 68 117 154 203 424 485
2020-04-01 03:30 3.30 288 488 (1979) 43 (1981) 153 43 52 60 68 117 154 203 424 485
2020-04-01 02:30 3.31 291 488 (1979) 43 (1981) 153 43 52 60 68 117 154 203 424 485
2020-04-01 01:30 3.34 301 488 (1979) 43 (1981) 153 43 52 60 68 117 154 203 424 485
2020-04-01 00:30 3.33 298 488 (1979) 43 (1981) 153 43 52 60 68 117 154 203 424 485
2020-03-31 23:30 3.35 304 797 (1973) 46 (1981) 165 46 54 70 78 124 166 171 366 776
2020-03-31 22:30 3.34 301 797 (1973) 46 (1981) 165 46 54 70 78 124 166 171 366 776
2020-03-31 21:30 3.38 314 797 (1973) 46 (1981) 165 46 54 70 78 124 166 171 366 776
2020-03-31 20:30 3.35 304 797 (1973) 46 (1981) 165 46 54 70 78 124 166 171 366 776
2020-03-31 19:30 3.39 317 797 (1973) 46 (1981) 165 46 54 70 78 124 166 171 366 776
2020-03-31 18:30 3.42 326 797 (1973) 46 (1981) 165 46 54 70 78 124 166 171 366 776
2020-03-31 17:30 3.44 333 797 (1973) 46 (1981) 165 46 54 70 78 124 166 171 366 776
2020-03-31 16:30 3.46 339 797 (1973) 46 (1981) 165 46 54 70 78 124 166 171 366 776
2020-03-31 15:30 3.48 345 797 (1973) 46 (1981) 165 46 54 70 78 124 166 171 366 776
2020-03-31 14:30 3.50 352 797 (1973) 46 (1981) 165 46 54 70 78 124 166 171 366 776
2020-03-31 13:30 3.55 368 797 (1973) 46 (1981) 165 46 54 70 78 124 166 171 366 776
2020-03-31 12:30 3.58 378 797 (1973) 46 (1981) 165 46 54 70 78 124 166 171 366 776
2020-03-31 11:30 3.65 402 797 (1973) 46 (1981) 165 46 54 70 78 124 166 171 366 776
2020-03-31 10:30 3.70 420 797 (1973) 46 (1981) 165 46 54 70 78 124 166 171 366 776
2020-03-31 09:30 3.73 431 797 (1973) 46 (1981) 165 46 54 70 78 124 166 171 366 776
2020-03-31 08:30 3.70 420 797 (1973) 46 (1981) 165 46 54 70 78 124 166 171 366 776
2020-03-31 07:30 3.74 435 797 (1973) 46 (1981) 165 46 54 70 78 124 166 171 366 776
2020-03-31 06:30 3.79 452 797 (1973) 46 (1981) 165 46 54 70 78 124 166 171 366 776
2020-03-31 05:30 3.86 476 797 (1973) 46 (1981) 165 46 54 70 78 124 166 171 366 776
2020-03-31 04:30 3.81 458 797 (1973) 46 (1981) 165 46 54 70 78 124 166 171 366 776
2020-03-31 03:30 3.51 355 797 (1973) 46 (1981) 165 46 54 70 78 124 166 171 366 776
2020-03-31 02:30 3.31 291 797 (1973) 46 (1981) 165 46 54 70 78 124 166 171 366 776
2020-03-31 01:30 3.29 285 797 (1973) 46 (1981) 165 46 54 70 78 124 166 171 366 776
2020-03-31 00:30 3.23 267 797 (1973) 46 (1981) 165 46 54 70 78 124 166 171 366 776

A total of 188 rows are displayed for years 1968 through 2019.